sensor_id;sensor_type;location;lat;lon;timestamp;temperature;humidity
15638;DHT22;26604;53.596;10.042;2022-09-09T00:00:46;21.80;1.00
15638;DHT22;26604;53.596;10.042;2022-09-09T00:03:16;21.80;1.00
15638;DHT22;26604;53.596;10.042;2022-09-09T00:05:51;21.80;1.00
15638;DHT22;26604;53.596;10.042;2022-09-09T00:08:24;21.80;1.00
15638;DHT22;26604;53.596;10.042;2022-09-09T00:10:56;21.80;1.00
15638;DHT22;26604;53.596;10.042;2022-09-09T00:13:31;21.80;1.00
15638;DHT22;26604;53.596;10.042;2022-09-09T00:16:05;21.80;1.00
15638;DHT22;26604;53.596;10.042;2022-09-09T00:18:44;21.80;1.00
15638;DHT22;26604;53.596;10.042;2022-09-09T00:21:15;21.80;1.00
15638;DHT22;26604;53.596;10.042;2022-09-09T00:23:46;21.80;1.00
15638;DHT22;26604;53.596;10.042;2022-09-09T00:26:21;21.80;1.00
15638;DHT22;26604;53.596;10.042;2022-09-09T00:28:55;21.80;1.00
15638;DHT22;26604;53.596;10.042;2022-09-09T00:31:28;21.80;1.00
15638;DHT22;26604;53.596;10.042;2022-09-09T00:33:57;21.80;1.00
15638;DHT22;26604;53.596;10.042;2022-09-09T00:36:27;21.80;1.00
15638;DHT22;26604;53.596;10.042;2022-09-09T00:38:57;21.80;1.00
15638;DHT22;26604;53.596;10.042;2022-09-09T00:41:35;21.80;1.00
15638;DHT22;26604;53.596;10.042;2022-09-09T00:44:18;21.70;1.00
15638;DHT22;26604;53.596;10.042;2022-09-09T00:46:56;21.70;1.00
15638;DHT22;26604;53.596;10.042;2022-09-09T00:49:36;21.70;1.00
15638;DHT22;26604;53.596;10.042;2022-09-09T00:52:19;21.70;1.00
15638;DHT22;26604;53.596;10.042;2022-09-09T00:54:54;21.70;1.00
15638;DHT22;26604;53.596;10.042;2022-09-09T00:57:26;21.70;1.00
15638;DHT22;26604;53.596;10.042;2022-09-09T01:00:15;21.70;1.00
15638;DHT22;26604;53.596;10.042;2022-09-09T01:02:52;21.70;1.00
15638;DHT22;26604;53.596;10.042;2022-09-09T01:05:25;21.70;1.00
15638;DHT22;26604;53.596;10.042;2022-09-09T01:07:54;21.70;1.00
15638;DHT22;26604;53.596;10.042;2022-09-09T01:10:26;21.70;1.00
15638;DHT22;26604;53.596;10.042;2022-09-09T01:12:56;21.70;1.00
15638;DHT22;26604;53.596;10.042;2022-09-09T01:15:29;21.70;1.00
15638;DHT22;26604;53.596;10.042;2022-09-09T01:18:00;21.70;1.00
15638;DHT22;26604;53.596;10.042;2022-09-09T01:20:34;21.70;1.00
15638;DHT22;26604;53.596;10.042;2022-09-09T01:23:27;21.70;1.00
15638;DHT22;26604;53.596;10.042;2022-09-09T01:26:21;21.70;1.00
15638;DHT22;26604;53.596;10.042;2022-09-09T01:28:51;21.70;1.00
15638;DHT22;26604;53.596;10.042;2022-09-09T01:31:21;21.70;1.00
15638;DHT22;26604;53.596;10.042;2022-09-09T01:33:49;21.70;1.00
15638;DHT22;26604;53.596;10.042;2022-09-09T01:36:21;21.70;1.00
15638;DHT22;26604;53.596;10.042;2022-09-09T01:38:51;21.60;1.00
15638;DHT22;26604;53.596;10.042;2022-09-09T01:41:19;21.60;1.00
15638;DHT22;26604;53.596;10.042;2022-09-09T01:43:47;21.60;1.00
15638;DHT22;26604;53.596;10.042;2022-09-09T01:46:14;21.60;1.00
15638;DHT22;26604;53.596;10.042;2022-09-09T01:48:43;21.60;12.30
15638;DHT22;26604;53.596;10.042;2022-09-09T01:51:10;21.70;85.20
15638;DHT22;26604;53.596;10.042;2022-09-09T01:53:38;21.70;99.90
15638;DHT22;26604;53.596;10.042;2022-09-09T01:56:15;21.80;99.90
15638;DHT22;26604;53.596;10.042;2022-09-09T01:58:57;21.80;99.90
15638;DHT22;26604;53.596;10.042;2022-09-09T02:01:39;21.80;99.90
15638;DHT22;26604;53.596;10.042;2022-09-09T02:04:22;21.80;99.90
15638;DHT22;26604;53.596;10.042;2022-09-09T02:06:53;21.80;99.90
15638;DHT22;26604;53.596;10.042;2022-09-09T02:09:24;21.80;99.90
15638;DHT22;26604;53.596;10.042;2022-09-09T02:11:56;21.80;99.90
15638;DHT22;26604;53.596;10.042;2022-09-09T02:14:30;21.80;87.90
15638;DHT22;26604;53.596;10.042;2022-09-09T02:17:01;21.80;53.90
15638;DHT22;26604;53.596;10.042;2022-09-09T02:19:32;21.80;31.70
15638;DHT22;26604;53.596;10.042;2022-09-09T02:22:01;21.80;15.90
15638;DHT22;26604;53.596;10.042;2022-09-09T02:24:32;21.80;1.00
15638;DHT22;26604;53.596;10.042;2022-09-09T02:27:02;21.80;1.00
15638;DHT22;26604;53.596;10.042;2022-09-09T02:29:34;21.80;1.00
15638;DHT22;26604;53.596;10.042;2022-09-09T02:32:06;21.80;1.00
15638;DHT22;26604;53.596;10.042;2022-09-09T02:34:39;21.80;1.00
15638;DHT22;26604;53.596;10.042;2022-09-09T02:37:08;21.80;1.00
15638;DHT22;26604;53.596;10.042;2022-09-09T02:39:36;21.80;1.00
15638;DHT22;26604;53.596;10.042;2022-09-09T02:42:04;21.80;1.00
15638;DHT22;26604;53.596;10.042;2022-09-09T02:44:32;21.80;1.00
15638;DHT22;26604;53.596;10.042;2022-09-09T02:47:21;21.80;1.00
15638;DHT22;26604;53.596;10.042;2022-09-09T02:50:00;21.80;1.00
15638;DHT22;26604;53.596;10.042;2022-09-09T02:52:33;21.80;1.00
15638;DHT22;26604;53.596;10.042;2022-09-09T02:55:08;21.80;1.00
15638;DHT22;26604;53.596;10.042;2022-09-09T02:57:39;21.80;1.00
15638;DHT22;26604;53.596;10.042;2022-09-09T03:00:09;21.70;1.00
15638;DHT22;26604;53.596;10.042;2022-09-09T03:02:36;21.80;1.00
15638;DHT22;26604;53.596;10.042;2022-09-09T03:05:05;21.70;1.00
15638;DHT22;26604;53.596;10.042;2022-09-09T03:07:32;21.80;1.00
15638;DHT22;26604;53.596;10.042;2022-09-09T03:09:59;21.70;1.00
15638;DHT22;26604;53.596;10.042;2022-09-09T03:12:25;21.80;1.00
15638;DHT22;26604;53.596;10.042;2022-09-09T03:14:52;21.70;1.00
15638;DHT22;26604;53.596;10.042;2022-09-09T03:17:20;21.80;1.00
15638;DHT22;26604;53.596;10.042;2022-09-09T03:19:47;21.70;1.00
15638;DHT22;26604;53.596;10.042;2022-09-09T03:22:15;21.70;1.00
15638;DHT22;26604;53.596;10.042;2022-09-09T03:24:41;21.70;1.00
15638;DHT22;26604;53.596;10.042;2022-09-09T03:27:08;21.70;1.00
15638;DHT22;26604;53.596;10.042;2022-09-09T03:29:35;21.70;1.00
15638;DHT22;26604;53.596;10.042;2022-09-09T03:32:02;21.70;1.00
15638;DHT22;26604;53.596;10.042;2022-09-09T03:34:30;21.70;1.00
15638;DHT22;26604;53.596;10.042;2022-09-09T03:36:57;21.70;1.00
15638;DHT22;26604;53.596;10.042;2022-09-09T03:39:24;21.70;1.00
15638;DHT22;26604;53.596;10.042;2022-09-09T03:41:51;21.70;1.00
15638;DHT22;26604;53.596;10.042;2022-09-09T03:44:18;21.70;1.00
15638;DHT22;26604;53.596;10.042;2022-09-09T03:46:45;21.70;1.00
15638;DHT22;26604;53.596;10.042;2022-09-09T03:49:11;21.70;1.00
15638;DHT22;26604;53.596;10.042;2022-09-09T03:51:40;21.70;1.00
15638;DHT22;26604;53.596;10.042;2022-09-09T03:54:07;21.70;1.00
15638;DHT22;26604;53.596;10.042;2022-09-09T03:56:36;21.70;1.00
15638;DHT22;26604;53.596;10.042;2022-09-09T03:59:03;21.70;1.00
15638;DHT22;26604;53.596;10.042;2022-09-09T04:01:30;21.70;1.00
15638;DHT22;26604;53.596;10.042;2022-09-09T04:03:57;21.70;1.00
15638;DHT22;26604;53.596;10.042;2022-09-09T04:06:25;21.70;1.00
15638;DHT22;26604;53.596;10.042;2022-09-09T04:08:53;21.70;1.00
15638;DHT22;26604;53.596;10.042;2022-09-09T04:11:21;21.70;1.00
15638;DHT22;26604;53.596;10.042;2022-09-09T04:13:48;21.70;1.00
15638;DHT22;26604;53.596;10.042;2022-09-09T04:16:15;21.70;1.00
15638;DHT22;26604;53.596;10.042;2022-09-09T04:18:42;21.70;1.00
15638;DHT22;26604;53.596;10.042;2022-09-09T04:21:10;21.70;1.00
15638;DHT22;26604;53.596;10.042;2022-09-09T04:23:37;21.70;1.00
15638;DHT22;26604;53.596;10.042;2022-09-09T04:26:06;21.70;1.00
15638;DHT22;26604;53.596;10.042;2022-09-09T04:28:35;21.70;1.00
15638;DHT22;26604;53.596;10.042;2022-09-09T04:31:07;21.70;1.00
15638;DHT22;26604;53.596;10.042;2022-09-09T04:33:35;21.70;1.00
15638;DHT22;26604;53.596;10.042;2022-09-09T04:36:02;21.70;1.00
15638;DHT22;26604;53.596;10.042;2022-09-09T04:38:29;21.70;1.00
15638;DHT22;26604;53.596;10.042;2022-09-09T04:40:56;21.70;1.00
15638;DHT22;26604;53.596;10.042;2022-09-09T04:43:24;21.70;1.00
15638;DHT22;26604;53.596;10.042;2022-09-09T04:45:52;21.70;1.00
15638;DHT22;26604;53.596;10.042;2022-09-09T04:48:19;21.70;1.00
15638;DHT22;26604;53.596;10.042;2022-09-09T04:50:54;21.70;1.00
15638;DHT22;26604;53.596;10.042;2022-09-09T04:53:21;21.70;1.00
15638;DHT22;26604;53.596;10.042;2022-09-09T04:55:48;21.70;99.90
15638;DHT22;26604;53.596;10.042;2022-09-09T04:58:15;21.70;99.90
15638;DHT22;26604;53.596;10.042;2022-09-09T05:00:43;21.70;99.90
15638;DHT22;26604;53.596;10.042;2022-09-09T05:03:10;21.70;99.90
15638;DHT22;26604;53.596;10.042;2022-09-09T05:05:38;21.70;99.90
15638;DHT22;26604;53.596;10.042;2022-09-09T05:08:07;21.70;99.90
15638;DHT22;26604;53.596;10.042;2022-09-09T05:10:36;21.70;99.90
15638;DHT22;26604;53.596;10.042;2022-09-09T05:13:03;21.70;99.90
15638;DHT22;26604;53.596;10.042;2022-09-09T05:15:31;21.70;99.90
15638;DHT22;26604;53.596;10.042;2022-09-09T05:17:59;21.70;99.90
15638;DHT22;26604;53.596;10.042;2022-09-09T05:20:27;21.70;1.00
15638;DHT22;26604;53.596;10.042;2022-09-09T05:22:53;21.70;1.00
15638;DHT22;26604;53.596;10.042;2022-09-09T05:25:20;21.80;1.00
15638;DHT22;26604;53.596;10.042;2022-09-09T05:27:48;21.80;1.00
15638;DHT22;26604;53.596;10.042;2022-09-09T05:30:15;21.80;1.00
15638;DHT22;26604;53.596;10.042;2022-09-09T05:32:42;21.80;1.00
15638;DHT22;26604;53.596;10.042;2022-09-09T05:35:10;21.80;1.00
15638;DHT22;26604;53.596;10.042;2022-09-09T05:37:37;21.80;1.00
15638;DHT22;26604;53.596;10.042;2022-09-09T05:40:04;21.80;1.00
15638;DHT22;26604;53.596;10.042;2022-09-09T05:42:31;21.80;1.00
15638;DHT22;26604;53.596;10.042;2022-09-09T05:44:58;21.70;1.00
15638;DHT22;26604;53.596;10.042;2022-09-09T05:47:25;21.70;1.00
15638;DHT22;26604;53.596;10.042;2022-09-09T05:49:53;21.70;99.90
15638;DHT22;26604;53.596;10.042;2022-09-09T05:52:22;21.60;99.90
15638;DHT22;26604;53.596;10.042;2022-09-09T05:54:49;21.60;99.90
15638;DHT22;26604;53.596;10.042;2022-09-09T05:57:16;21.60;99.90
15638;DHT22;26604;53.596;10.042;2022-09-09T05:59:44;21.60;99.90
15638;DHT22;26604;53.596;10.042;2022-09-09T06:02:12;21.60;99.90
15638;DHT22;26604;53.596;10.042;2022-09-09T06:04:39;21.60;99.90
15638;DHT22;26604;53.596;10.042;2022-09-09T06:07:05;21.60;99.90
15638;DHT22;26604;53.596;10.042;2022-09-09T06:09:34;21.60;99.90
15638;DHT22;26604;53.596;10.042;2022-09-09T06:12:01;21.60;99.90
15638;DHT22;26604;53.596;10.042;2022-09-09T06:14:28;21.60;97.70
15638;DHT22;26604;53.596;10.042;2022-09-09T06:16:54;21.60;97.30
15638;DHT22;26604;53.596;10.042;2022-09-09T06:19:22;21.60;97.70
15638;DHT22;26604;53.596;10.042;2022-09-09T06:21:49;21.60;97.60
15638;DHT22;26604;53.596;10.042;2022-09-09T06:24:16;21.60;99.90
15638;DHT22;26604;53.596;10.042;2022-09-09T06:26:46;21.50;99.90
15638;DHT22;26604;53.596;10.042;2022-09-09T06:29:13;21.50;99.90
15638;DHT22;26604;53.596;10.042;2022-09-09T06:31:39;21.50;99.90
15638;DHT22;26604;53.596;10.042;2022-09-09T06:34:07;21.50;99.90
15638;DHT22;26604;53.596;10.042;2022-09-09T06:36:35;21.50;99.90
15638;DHT22;26604;53.596;10.042;2022-09-09T06:39:03;21.50;99.90
15638;DHT22;26604;53.596;10.042;2022-09-09T06:41:32;21.60;99.90
15638;DHT22;26604;53.596;10.042;2022-09-09T06:44:00;21.50;99.90
15638;DHT22;26604;53.596;10.042;2022-09-09T06:46:28;21.60;99.90
15638;DHT22;26604;53.596;10.042;2022-09-09T06:48:57;21.50;99.90
15638;DHT22;26604;53.596;10.042;2022-09-09T06:51:26;21.60;97.80
15638;DHT22;26604;53.596;10.042;2022-09-09T06:53:55;21.60;97.30
15638;DHT22;26604;53.596;10.042;2022-09-09T06:56:24;21.60;94.80
15638;DHT22;26604;53.596;10.042;2022-09-09T06:58:53;21.60;87.40
15638;DHT22;26604;53.596;10.042;2022-09-09T07:01:23;21.60;74.60
15638;DHT22;26604;53.596;10.042;2022-09-09T07:03:52;21.60;50.30
15638;DHT22;26604;53.596;10.042;2022-09-09T07:06:22;21.60;34.80
15638;DHT22;26604;53.596;10.042;2022-09-09T07:08:49;21.60;31.00
15638;DHT22;26604;53.596;10.042;2022-09-09T07:11:17;21.60;15.90
15638;DHT22;26604;53.596;10.042;2022-09-09T07:13:44;21.60;12.80
15638;DHT22;26604;53.596;10.042;2022-09-09T07:16:13;21.60;9.40
15638;DHT22;26604;53.596;10.042;2022-09-09T07:18:42;21.60;5.00
15638;DHT22;26604;53.596;10.042;2022-09-09T07:21:10;21.60;1.00
15638;DHT22;26604;53.596;10.042;2022-09-09T07:23:38;21.60;1.00
15638;DHT22;26604;53.596;10.042;2022-09-09T07:26:08;21.70;1.80
15638;DHT22;26604;53.596;10.042;2022-09-09T07:28:36;21.70;10.40
15638;DHT22;26604;53.596;10.042;2022-09-09T07:31:04;21.70;13.40
15638;DHT22;26604;53.596;10.042;2022-09-09T07:33:33;21.70;99.90
15638;DHT22;26604;53.596;10.042;2022-09-09T07:36:07;21.70;99.90
15638;DHT22;26604;53.596;10.042;2022-09-09T07:38:38;21.70;1.00
15638;DHT22;26604;53.596;10.042;2022-09-09T07:41:07;21.80;1.00
15638;DHT22;26604;53.596;10.042;2022-09-09T07:43:37;21.80;1.00
15638;DHT22;26604;53.596;10.042;2022-09-09T07:46:05;21.80;1.00
15638;DHT22;26604;53.596;10.042;2022-09-09T07:48:32;21.80;1.00
15638;DHT22;26604;53.596;10.042;2022-09-09T07:51:11;21.80;1.00
15638;DHT22;26604;53.596;10.042;2022-09-09T07:53:43;21.80;99.90
15638;DHT22;26604;53.596;10.042;2022-09-09T07:56:13;21.80;99.90
15638;DHT22;26604;53.596;10.042;2022-09-09T07:58:41;21.80;99.90
15638;DHT22;26604;53.596;10.042;2022-09-09T08:01:12;21.80;99.90
15638;DHT22;26604;53.596;10.042;2022-09-09T08:03:41;21.80;99.90
15638;DHT22;26604;53.596;10.042;2022-09-09T08:06:10;21.80;99.90
15638;DHT22;26604;53.596;10.042;2022-09-09T08:08:40;21.80;99.90
15638;DHT22;26604;53.596;10.042;2022-09-09T08:11:10;21.80;99.90
15638;DHT22;26604;53.596;10.042;2022-09-09T08:13:38;21.80;99.90
15638;DHT22;26604;53.596;10.042;2022-09-09T08:16:07;21.80;99.90
15638;DHT22;26604;53.596;10.042;2022-09-09T08:18:34;21.80;99.90
15638;DHT22;26604;53.596;10.042;2022-09-09T08:21:10;21.80;99.90
15638;DHT22;26604;53.596;10.042;2022-09-09T08:23:39;21.80;99.90
15638;DHT22;26604;53.596;10.042;2022-09-09T08:26:09;21.80;99.90
15638;DHT22;26604;53.596;10.042;2022-09-09T08:28:36;21.80;99.90
15638;DHT22;26604;53.596;10.042;2022-09-09T08:31:11;21.80;99.90
15638;DHT22;26604;53.596;10.042;2022-09-09T08:33:39;21.80;99.90
15638;DHT22;26604;53.596;10.042;2022-09-09T08:36:10;21.80;99.90
15638;DHT22;26604;53.596;10.042;2022-09-09T08:38:38;21.80;99.90
15638;DHT22;26604;53.596;10.042;2022-09-09T08:41:29;21.80;99.90
15638;DHT22;26604;53.596;10.042;2022-09-09T08:44:03;21.80;99.90
15638;DHT22;26604;53.596;10.042;2022-09-09T08:46:40;21.80;99.90
15638;DHT22;26604;53.596;10.042;2022-09-09T08:49:20;21.80;99.90
15638;DHT22;26604;53.596;10.042;2022-09-09T08:51:56;21.80;99.90
15638;DHT22;26604;53.596;10.042;2022-09-09T08:54:24;21.80;99.90
15638;DHT22;26604;53.596;10.042;2022-09-09T08:56:52;21.80;99.90
15638;DHT22;26604;53.596;10.042;2022-09-09T08:59:19;21.80;99.90
15638;DHT22;26604;53.596;10.042;2022-09-09T09:01:54;21.80;99.90
15638;DHT22;26604;53.596;10.042;2022-09-09T09:04:39;21.80;99.90
15638;DHT22;26604;53.596;10.042;2022-09-09T09:07:18;21.80;99.90
15638;DHT22;26604;53.596;10.042;2022-09-09T09:09:55;21.80;99.90
15638;DHT22;26604;53.596;10.042;2022-09-09T09:12:26;21.80;99.90
15638;DHT22;26604;53.596;10.042;2022-09-09T09:14:54;21.80;99.90
15638;DHT22;26604;53.596;10.042;2022-09-09T09:17:25;21.80;99.60
15638;DHT22;26604;53.596;10.042;2022-09-09T09:19:53;21.80;99.90
15638;DHT22;26604;53.596;10.042;2022-09-09T09:22:23;21.80;99.90
15638;DHT22;26604;53.596;10.042;2022-09-09T09:24:55;21.80;99.90
15638;DHT22;26604;53.596;10.042;2022-09-09T09:27:30;21.80;98.60
15638;DHT22;26604;53.596;10.042;2022-09-09T09:30:01;21.80;99.30
15638;DHT22;26604;53.596;10.042;2022-09-09T09:32:31;21.90;99.90
15638;DHT22;26604;53.596;10.042;2022-09-09T09:35:01;21.90;99.90
15638;DHT22;26604;53.596;10.042;2022-09-09T09:37:32;21.80;98.50
15638;DHT22;26604;53.596;10.042;2022-09-09T09:40:08;21.90;98.20
15638;DHT22;26604;53.596;10.042;2022-09-09T09:42:36;21.90;98.60
15638;DHT22;26604;53.596;10.042;2022-09-09T09:45:16;21.90;99.90
15638;DHT22;26604;53.596;10.042;2022-09-09T09:47:45;21.90;99.90
15638;DHT22;26604;53.596;10.042;2022-09-09T09:50:19;21.90;99.90
15638;DHT22;26604;53.596;10.042;2022-09-09T09:52:55;21.90;98.30
15638;DHT22;26604;53.596;10.042;2022-09-09T09:55:23;21.90;99.90
15638;DHT22;26604;53.596;10.042;2022-09-09T09:57:51;21.90;99.90
15638;DHT22;26604;53.596;10.042;2022-09-09T10:00:20;21.90;99.90
15638;DHT22;26604;53.596;10.042;2022-09-09T10:02:48;21.90;99.90
15638;DHT22;26604;53.596;10.042;2022-09-09T10:05:19;21.90;99.90
15638;DHT22;26604;53.596;10.042;2022-09-09T10:07:47;21.90;99.90
15638;DHT22;26604;53.596;10.042;2022-09-09T10:10:21;21.90;99.90
15638;DHT22;26604;53.596;10.042;2022-09-09T10:12:58;21.90;99.90
15638;DHT22;26604;53.596;10.042;2022-09-09T10:15:32;21.90;97.50
15638;DHT22;26604;53.596;10.042;2022-09-09T10:18:12;22.00;79.10
15638;DHT22;26604;53.596;10.042;2022-09-09T10:20:50;22.00;66.50
15638;DHT22;26604;53.596;10.042;2022-09-09T10:23:28;22.00;65.80
15638;DHT22;26604;53.596;10.042;2022-09-09T10:26:12;22.00;62.00
15638;DHT22;26604;53.596;10.042;2022-09-09T10:29:11;21.90;59.20
15638;DHT22;26604;53.596;10.042;2022-09-09T10:31:52;21.90;59.80
15638;DHT22;26604;53.596;10.042;2022-09-09T10:34:37;21.90;56.10
15638;DHT22;26604;53.596;10.042;2022-09-09T10:37:18;21.90;47.70
15638;DHT22;26604;53.596;10.042;2022-09-09T10:39:50;21.90;99.90
15638;DHT22;26604;53.596;10.042;2022-09-09T10:42:26;22.00;99.90
15638;DHT22;26604;53.596;10.042;2022-09-09T10:45:06;22.00;99.90
15638;DHT22;26604;53.596;10.042;2022-09-09T10:47:50;22.10;1.00
15638;DHT22;26604;53.596;10.042;2022-09-09T10:53:16;22.10;1.00
15638;DHT22;26604;53.596;10.042;2022-09-09T10:55:50;22.10;99.90
15638;DHT22;26604;53.596;10.042;2022-09-09T10:58:25;22.10;99.90
15638;DHT22;26604;53.596;10.042;2022-09-09T11:00:57;22.10;99.90
15638;DHT22;26604;53.596;10.042;2022-09-09T11:03:28;22.00;99.90
15638;DHT22;26604;53.596;10.042;2022-09-09T11:05:59;22.00;99.90
15638;DHT22;26604;53.596;10.042;2022-09-09T11:08:29;22.00;99.90
15638;DHT22;26604;53.596;10.042;2022-09-09T11:11:00;22.00;99.90
15638;DHT22;26604;53.596;10.042;2022-09-09T11:13:34;22.00;99.90
15638;DHT22;26604;53.596;10.042;2022-09-09T11:16:10;21.90;99.90
15638;DHT22;26604;53.596;10.042;2022-09-09T11:18:41;21.90;99.90
15638;DHT22;26604;53.596;10.042;2022-09-09T11:21:16;21.90;99.90
15638;DHT22;26604;53.596;10.042;2022-09-09T11:23:48;21.90;99.90
15638;DHT22;26604;53.596;10.042;2022-09-09T11:26:21;21.90;91.70
15638;DHT22;26604;53.596;10.042;2022-09-09T11:29:05;21.90;55.60
15638;DHT22;26604;53.596;10.042;2022-09-09T11:31:44;21.90;35.90
15638;DHT22;26604;53.596;10.042;2022-09-09T11:34:23;21.90;22.00
15638;DHT22;26604;53.596;10.042;2022-09-09T11:37:16;21.90;19.00
15638;DHT22;26604;53.596;10.042;2022-09-09T11:40:02;21.90;16.00
15638;DHT22;26604;53.596;10.042;2022-09-09T11:42:31;21.90;5.30
15638;DHT22;26604;53.596;10.042;2022-09-09T11:45:09;21.90;9.20
15638;DHT22;26604;53.596;10.042;2022-09-09T11:47:36;21.90;25.70
15638;DHT22;26604;53.596;10.042;2022-09-09T11:50:26;21.90;50.00
15638;DHT22;26604;53.596;10.042;2022-09-09T11:53:05;21.90;83.50
15638;DHT22;26604;53.596;10.042;2022-09-09T11:55:41;21.90;97.30
15638;DHT22;26604;53.596;10.042;2022-09-09T11:58:16;21.90;99.90
15638;DHT22;26604;53.596;10.042;2022-09-09T12:00:46;21.90;99.90
15638;DHT22;26604;53.596;10.042;2022-09-09T12:03:39;21.90;99.90
15638;DHT22;26604;53.596;10.042;2022-09-09T12:06:17;21.90;99.90
15638;DHT22;26604;53.596;10.042;2022-09-09T12:08:48;21.90;99.90
15638;DHT22;26604;53.596;10.042;2022-09-09T12:11:25;21.90;99.90
15638;DHT22;26604;53.596;10.042;2022-09-09T12:13:54;21.90;99.90
15638;DHT22;26604;53.596;10.042;2022-09-09T12:16:31;21.90;99.90
15638;DHT22;26604;53.596;10.042;2022-09-09T12:19:05;21.90;99.90
15638;DHT22;26604;53.596;10.042;2022-09-09T12:21:36;21.90;99.90
15638;DHT22;26604;53.596;10.042;2022-09-09T12:24:08;21.90;99.90
15638;DHT22;26604;53.596;10.042;2022-09-09T12:26:38;21.90;99.90
15638;DHT22;26604;53.596;10.042;2022-09-09T12:29:24;21.90;99.90
15638;DHT22;26604;53.596;10.042;2022-09-09T12:31:56;21.90;99.90
15638;DHT22;26604;53.596;10.042;2022-09-09T12:34:34;21.90;99.90
15638;DHT22;26604;53.596;10.042;2022-09-09T12:37:06;21.90;99.90
15638;DHT22;26604;53.596;10.042;2022-09-09T12:39:45;21.90;99.90
15638;DHT22;26604;53.596;10.042;2022-09-09T12:42:18;21.90;99.90
15638;DHT22;26604;53.596;10.042;2022-09-09T12:44:56;21.90;1.00
15638;DHT22;26604;53.596;10.042;2022-09-09T12:47:29;21.90;1.00
15638;DHT22;26604;53.596;10.042;2022-09-09T12:49:56;21.90;1.00
15638;DHT22;26604;53.596;10.042;2022-09-09T12:52:26;21.90;1.00
15638;DHT22;26604;53.596;10.042;2022-09-09T12:54:55;21.90;1.00
15638;DHT22;26604;53.596;10.042;2022-09-09T12:57:25;21.90;1.00
15638;DHT22;26604;53.596;10.042;2022-09-09T13:00:03;21.90;1.00
15638;DHT22;26604;53.596;10.042;2022-09-09T13:02:32;21.90;1.00
15638;DHT22;26604;53.596;10.042;2022-09-09T13:05:09;21.90;1.00
15638;DHT22;26604;53.596;10.042;2022-09-09T13:07:39;21.90;1.00
15638;DHT22;26604;53.596;10.042;2022-09-09T13:10:11;21.90;1.00
15638;DHT22;26604;53.596;10.042;2022-09-09T13:12:38;21.90;1.00
15638;DHT22;26604;53.596;10.042;2022-09-09T13:15:14;21.80;1.00
15638;DHT22;26604;53.596;10.042;2022-09-09T13:17:50;21.80;1.00
15638;DHT22;26604;53.596;10.042;2022-09-09T13:20:19;21.80;1.00
15638;DHT22;26604;53.596;10.042;2022-09-09T13:22:48;21.80;1.00
15638;DHT22;26604;53.596;10.042;2022-09-09T13:25:21;21.80;1.00
15638;DHT22;26604;53.596;10.042;2022-09-09T13:27:57;21.80;1.00
15638;DHT22;26604;53.596;10.042;2022-09-09T13:30:27;21.80;1.00
15638;DHT22;26604;53.596;10.042;2022-09-09T13:33:18;21.80;1.00
15638;DHT22;26604;53.596;10.042;2022-09-09T13:35:50;21.80;1.00
15638;DHT22;26604;53.596;10.042;2022-09-09T13:38:18;21.80;1.00
15638;DHT22;26604;53.596;10.042;2022-09-09T13:41:04;21.80;1.00
15638;DHT22;26604;53.596;10.042;2022-09-09T13:43:34;21.70;8.60
15638;DHT22;26604;53.596;10.042;2022-09-09T13:46:03;21.70;10.80
15638;DHT22;26604;53.596;10.042;2022-09-09T13:48:31;21.70;10.60
15638;DHT22;26604;53.596;10.042;2022-09-09T13:51:02;21.70;9.00
15638;DHT22;26604;53.596;10.042;2022-09-09T13:53:31;21.70;6.40
15638;DHT22;26604;53.596;10.042;2022-09-09T13:55:58;21.70;3.10
15638;DHT22;26604;53.596;10.042;2022-09-09T13:58:26;21.70;8.80
15638;DHT22;26604;53.596;10.042;2022-09-09T14:00:53;21.70;20.50
15638;DHT22;26604;53.596;10.042;2022-09-09T14:03:20;21.70;35.00
15638;DHT22;26604;53.596;10.042;2022-09-09T14:05:49;21.70;46.70
15638;DHT22;26604;53.596;10.042;2022-09-09T14:08:26;21.70;57.00
15638;DHT22;26604;53.596;10.042;2022-09-09T14:10:54;21.70;63.50
15638;DHT22;26604;53.596;10.042;2022-09-09T14:13:25;21.70;73.90
15638;DHT22;26604;53.596;10.042;2022-09-09T14:15:51;21.70;87.10
15638;DHT22;26604;53.596;10.042;2022-09-09T14:18:19;21.70;91.70
15638;DHT22;26604;53.596;10.042;2022-09-09T14:20:49;21.70;94.40
15638;DHT22;26604;53.596;10.042;2022-09-09T14:23:16;21.70;95.00
15638;DHT22;26604;53.596;10.042;2022-09-09T14:25:44;21.70;96.50
15638;DHT22;26604;53.596;10.042;2022-09-09T14:28:12;21.70;99.90
15638;DHT22;26604;53.596;10.042;2022-09-09T14:30:40;21.70;99.90
15638;DHT22;26604;53.596;10.042;2022-09-09T14:33:09;21.70;99.90
15638;DHT22;26604;53.596;10.042;2022-09-09T14:35:36;21.70;99.90
15638;DHT22;26604;53.596;10.042;2022-09-09T14:38:05;21.70;99.90
15638;DHT22;26604;53.596;10.042;2022-09-09T14:40:33;21.70;99.90
15638;DHT22;26604;53.596;10.042;2022-09-09T14:43:00;21.70;99.90
15638;DHT22;26604;53.596;10.042;2022-09-09T14:45:27;21.70;99.90
15638;DHT22;26604;53.596;10.042;2022-09-09T14:47:54;21.70;99.90
15638;DHT22;26604;53.596;10.042;2022-09-09T14:50:23;21.70;99.90
15638;DHT22;26604;53.596;10.042;2022-09-09T14:52:50;21.70;99.90
15638;DHT22;26604;53.596;10.042;2022-09-09T14:55:18;21.70;99.90
15638;DHT22;26604;53.596;10.042;2022-09-09T14:57:45;21.70;99.90
15638;DHT22;26604;53.596;10.042;2022-09-09T15:00:13;21.80;99.90
15638;DHT22;26604;53.596;10.042;2022-09-09T15:02:40;21.80;99.90
15638;DHT22;26604;53.596;10.042;2022-09-09T15:05:07;21.80;99.90
15638;DHT22;26604;53.596;10.042;2022-09-09T15:07:34;21.70;99.90
15638;DHT22;26604;53.596;10.042;2022-09-09T15:10:02;21.70;99.90
15638;DHT22;26604;53.596;10.042;2022-09-09T15:12:30;21.70;99.90
15638;DHT22;26604;53.596;10.042;2022-09-09T15:14:58;21.70;99.90
15638;DHT22;26604;53.596;10.042;2022-09-09T15:17:25;21.70;99.90
15638;DHT22;26604;53.596;10.042;2022-09-09T15:19:52;21.70;99.90
15638;DHT22;26604;53.596;10.042;2022-09-09T15:22:20;21.80;99.90
15638;DHT22;26604;53.596;10.042;2022-09-09T15:24:47;21.90;99.90
15638;DHT22;26604;53.596;10.042;2022-09-09T15:27:14;21.90;99.90
15638;DHT22;26604;53.596;10.042;2022-09-09T15:29:42;21.90;99.90
15638;DHT22;26604;53.596;10.042;2022-09-09T15:32:09;21.90;99.90
15638;DHT22;26604;53.596;10.042;2022-09-09T15:34:36;21.80;99.90
15638;DHT22;26604;53.596;10.042;2022-09-09T15:37:03;21.80;99.90
15638;DHT22;26604;53.596;10.042;2022-09-09T15:39:31;21.80;99.90
15638;DHT22;26604;53.596;10.042;2022-09-09T15:41:58;21.80;99.90
15638;DHT22;26604;53.596;10.042;2022-09-09T15:44:26;21.80;99.90
15638;DHT22;26604;53.596;10.042;2022-09-09T15:46:54;21.80;99.90
15638;DHT22;26604;53.596;10.042;2022-09-09T15:49:23;21.80;99.90